Beddau, United Kingdom
Current Conditions -  °F | °C
As of 10:20 AM on Sunday 21 Dec 2014 (Local Time) from EGFF Reporting Station
Overcast Overcast  
Wind Chill: 42°   Ceiling: 700
Heat Index: 48°   Visibility: 6mi
Dew Point: 46°   Wind: 18mph
Humidity: 93%   Direction: 250°WSW
Pressure: 30.33"   Gusts: NA
Location:  51.55°N, 3.36°W
Report Text: EGFF 211020Z AUTO 25016KT 9999 BKN007 BKN016 OVC030 09/08 Q1027
Loading
Personal Weather Stations






























Interactive Weather Map New forecast layout! Learn more

10-Day Weather Forecast

Advertisements
Track Severe Weather on mobile